TimeCDT,TemperatureF,Dew PointF,Humidity,Sea Level PressureIn,VisibilityMPH,Wind Direction,Wind SpeedMPH,Gust SpeedMPH,PrecipitationIn,Events,Conditions,WindDirDegrees,DateUTC
12:56 AM,59.0,42.8,55,29.87,10.0,ESE,2.3,-,N/A,,Clear,120,2013-10-12 05:56:00
1:56 AM,53.6,44.6,72,29.88,10.0,North,3.5,-,N/A,,Clear,0,2013-10-12 06:56:00
2:56 AM,57.2,41.0,55,29.91,10.0,NE,3.5,-,N/A,,Clear,40,2013-10-12 07:56:00
3:56 AM,57.2,39.2,51,29.92,10.0,North,10.4,-,N/A,,Clear,10,2013-10-12 08:56:00
4:56 AM,59.0,41.0,51,29.93,10.0,NNE,16.1,-,N/A,,Clear,30,2013-10-12 09:56:00
5:56 AM,59.0,44.6,59,29.95,10.0,NNE,19.6,26.5,N/A,,Clear,30,2013-10-12 10:56:00
6:56 AM,57.2,44.6,63,29.97,10.0,NE,20.7,27.6,N/A,,Clear,40,2013-10-12 11:56:00
7:56 AM,57.2,44.6,63,29.99,10.0,NNE,24.2,29.9,N/A,,Mostly Cloudy,30,2013-10-12 12:56:00
8:56 AM,59.0,44.6,59,30.03,10.0,NNE,26.5,32.2,N/A,,Partly Cloudy,30,2013-10-12 13:56:00
9:56 AM,64.4,42.8,45,30.06,10.0,NNE,28.8,34.5,N/A,,Clear,30,2013-10-12 14:56:00
10:56 AM,66.2,44.6,46,30.08,10.0,NE,24.2,29.9,N/A,,Clear,40,2013-10-12 15:56:00
11:56 AM,69.8,46.4,43,30.10,10.0,NE,17.3,-,N/A,,Clear,40,2013-10-12 16:56:00
12:56 PM,73.4,48.2,41,30.09,10.0,NNE,16.1,-,N/A,,Clear,20,2013-10-12 17:56:00
1:56 PM,75.2,50.0,41,30.07,10.0,NE,16.1,-,N/A,,Clear,40,2013-10-12 18:56:00
2:56 PM,77.0,50.0,39,30.05,10.0,NNE,12.7,-,N/A,,Clear,30,2013-10-12 19:56:00
3:56 PM,77.0,50.0,39,30.04,10.0,NE,11.5,-,N/A,,Clear,40,2013-10-12 20:56:00
4:56 PM,77.0,48.2,36,30.04,9.0,NE,15.0,-,N/A,,Clear,40,2013-10-12 21:56:00
5:56 PM,75.2,48.2,38,30.05,10.0,NNE,13.8,-,N/A,,Clear,30,2013-10-12 22:56:00
6:56 PM,71.6,48.2,43,30.06,10.0,NE,10.4,-,N/A,,Clear,40,2013-10-12 23:56:00
7:56 PM,62.6,48.2,59,30.09,10.0,NE,8.1,-,N/A,,Clear,40,2013-10-13 00:56:00
8:56 PM,60.8,48.2,63,30.12,10.0,NE,8.1,-,N/A,,Clear,50,2013-10-13 01:56:00
9:56 PM,57.2,48.2,72,30.14,10.0,NE,8.1,-,N/A,,Clear,40,2013-10-13 02:56:00
10:56 PM,57.2,48.2,72,30.15,10.0,NE,9.2,-,N/A,,Clear,40,2013-10-13 03:56:00
11:56 PM,57.2,48.2,72,30.16,10.0,NNE,8.1,-,N/A,,Clear,20,2013-10-13 04:56:00